Time;durP1;ratioP1;P1;durP2;ratioP2;P2;SDS_P1;SDS_P2;PMS_P1;PMS_P2;Temp;Humidity;BMP_temperature;BMP_pressure;BME280_temperature;BME280_humidity;BME280_pressure;Samples;Min_cycle;Max_cycle;Signal;HPM_P1;HPM_P2
2023/04/25 00:00:23;;;;;;;6.85;1.92;;;;;;;6.33;78.76;100986.25;4953207;28;20037;-77
2023/04/25 00:02:49;;;;;;;8.10;2.60;;;;;;;6.30;78.80;100979.38;4953085;28;20034;-78
2023/04/25 00:05:17;;;;;;;6.28;2.00;;;;;;;6.29;79.14;100994.91;4950295;28;20526;-77
2023/04/25 00:07:42;;;;;;;5.88;2.13;;;;;;;6.25;78.70;100991.47;4953396;28;20036;-78
2023/04/25 00:10:09;;;;;;;4.63;1.90;;;;;;;6.20;78.83;100988.91;4953911;28;20166;-78
2023/04/25 00:12:35;;;;;;;5.88;2.10;;;;;;;6.17;79.17;101001.00;4953512;28;20561;-77
2023/04/25 00:15:01;;;;;;;6.25;1.80;;;;;;;6.15;79.98;100995.81;4955193;28;20133;-77
2023/04/25 00:17:26;;;;;;;6.15;1.73;;;;;;;6.13;79.66;100999.28;4956549;28;20483;-77
2023/04/25 00:19:52;;;;;;;5.15;2.08;;;;;;;6.11;79.85;101001.88;4952442;28;20467;-77
2023/04/25 00:22:17;;;;;;;5.35;2.00;;;;;;;6.10;79.89;101005.34;4952927;28;20085;-77
2023/04/25 00:24:43;;;;;;;10.60;2.05;;;;;;;6.07;80.02;101015.69;4952407;28;20454;-77
2023/04/25 00:27:08;;;;;;;5.30;1.80;;;;;;;6.07;79.98;101005.34;4953612;28;20440;-77
2023/04/25 00:29:34;;;;;;;6.63;2.17;;;;;;;6.05;80.03;101007.94;4954752;28;20106;-77
2023/04/25 00:31:59;;;;;;;4.90;1.67;;;;;;;6.03;80.17;101012.25;4952128;28;20047;-77
2023/04/25 00:34:24;;;;;;;6.47;1.90;;;;;;;6.03;79.95;101012.25;4953347;28;21921;-77
2023/04/25 00:36:50;;;;;;;6.30;1.95;;;;;;;6.01;79.94;101015.69;4951635;28;20031;-77
2023/04/25 00:39:15;;;;;;;7.97;1.85;;;;;;;5.99;80.27;101015.69;4950085;28;20054;-77
2023/04/25 00:41:40;;;;;;;4.38;1.83;;;;;;;5.98;79.92;101013.13;4955086;28;20031;-77
2023/04/25 00:44:08;;;;;;;7.28;2.30;;;;;;;5.95;80.13;101013.13;4954904;28;20050;-77
2023/04/25 00:46:35;;;;;;;5.38;1.70;;;;;;;5.92;80.43;101007.09;4955441;28;20328;-77
2023/04/25 00:49:00;;;;;;;7.97;2.72;;;;;;;5.91;80.94;101004.50;4955684;28;20109;-77
2023/04/25 00:51:26;;;;;;;8.90;2.00;;;;;;;5.90;80.39;101006.25;4955531;28;20055;-77
2023/04/25 00:53:52;;;;;;;5.18;1.80;;;;;;;5.90;80.49;101006.25;4955473;28;20049;-77
2023/04/25 00:56:18;;;;;;;6.82;1.98;;;;;;;5.89;80.44;101004.53;4954089;28;20104;-77
2023/04/25 00:58:43;;;;;;;6.45;1.95;;;;;;;5.89;80.71;101007.09;4953985;28;20027;-77
2023/04/25 01:01:10;;;;;;;5.85;1.88;;;;;;;5.88;80.77;101007.13;4955512;28;20019;-77
2023/04/25 01:03:40;;;;;;;6.32;1.60;;;;;;;5.86;80.61;101006.25;4956152;28;20070;-77
2023/04/25 01:06:09;;;;;;;7.15;2.17;;;;;;;5.83;80.89;101011.44;4949218;28;20050;-77
2023/04/25 01:08:35;;;;;;;6.38;1.80;;;;;;;5.80;81.08;101012.31;4954951;28;20031;-77
2023/04/25 01:11:00;;;;;;;5.82;2.20;;;;;;;5.77;80.60;101010.59;4952747;28;20074;-77
2023/04/25 01:13:26;;;;;;;5.25;1.85;;;;;;;5.76;80.42;101008.84;4953668;28;20031;-77
2023/04/25 01:15:51;;;;;;;8.80;2.00;;;;;;;5.74;80.44;101008.00;4952679;28;20087;-77
2023/04/25 01:18:18;;;;;;;5.82;1.83;;;;;;;5.72;80.92;101012.31;4953136;28;20047;-77
2023/04/25 01:20:44;;;;;;;6.10;2.05;;;;;;;5.70;80.96;101015.75;4953657;28;20421;-77
2023/04/25 01:23:09;;;;;;;4.95;1.70;;;;;;;5.68;80.90;101018.38;4952332;28;20042;-77
2023/04/25 01:25:35;;;;;;;7.50;1.70;;;;;;;5.65;81.10;101017.50;4951594;28;20015;-77
2023/04/25 01:28:00;;;;;;;5.45;1.90;;;;;;;5.62;81.33;101024.41;4953271;28;20077;-77
2023/04/25 01:30:27;;;;;;;7.22;1.85;;;;;;;5.58;81.75;101033.00;4953388;28;20047;-78
2023/04/25 01:32:55;;;;;;;5.22;1.73;;;;;;;5.57;81.93;101031.28;4951849;28;20031;-78
2023/04/25 01:35:21;;;;;;;7.25;1.92;;;;;;;5.58;81.88;101033.00;4947686;28;20027;-77
2023/04/25 01:37:47;;;;;;;5.30;1.70;;;;;;;5.62;81.65;101034.72;4949032;28;20114;-77
2023/04/25 01:40:13;;;;;;;7.03;1.92;;;;;;;5.66;81.31;101029.53;4952304;28;20102;-77
2023/04/25 01:42:42;;;;;;;6.13;1.85;;;;;;;5.66;81.51;101029.53;4953039;28;20106;-77
2023/04/25 01:45:08;;;;;;;7.35;1.80;;;;;;;5.66;81.37;101029.53;4947856;28;20028;-77
2023/04/25 01:47:36;;;;;;;5.93;1.73;;;;;;;5.64;81.58;101036.44;4952111;28;20097;-77
2023/04/25 01:50:03;;;;;;;7.28;2.00;;;;;;;5.62;81.50;101034.72;4952687;28;20079;-77
2023/04/25 01:52:28;;;;;;;7.57;2.10;;;;;;;5.59;81.59;101037.31;4951863;28;20099;-78
2023/04/25 01:54:54;;;;;;;6.78;2.22;;;;;;;5.56;81.38;101033.84;4947893;28;20418;-78
2023/04/25 01:57:19;;;;;;;5.57;1.95;;;;;;;5.53;81.76;101039.03;4952986;28;20035;-78
2023/04/25 01:59:45;;;;;;;5.68;1.95;;;;;;;5.51;82.10;101035.59;4950236;28;20019;-77
2023/04/25 02:02:11;;;;;;;7.15;2.13;;;;;;;5.50;81.42;101042.47;4944010;28;20074;-77
2023/04/25 02:04:36;;;;;;;8.68;2.30;;;;;;;5.51;81.77;101040.78;4949375;28;20027;-77
2023/04/25 02:07:01;;;;;;;6.63;2.03;;;;;;;5.52;81.37;101047.66;4952347;28;20483;-78
2023/04/25 02:09:27;;;;;;;8.05;2.60;;;;;;;5.49;81.58;101040.75;4947669;28;20051;-77
2023/04/25 02:11:52;;;;;;;7.40;2.30;;;;;;;5.47;81.67;101050.22;4947775;28;20106;-77
2023/04/25 02:14:18;;;;;;;8.20;2.10;;;;;;;5.46;82.14;101044.22;4951196;28;20114;-77
2023/04/25 02:16:46;;;;;;;10.00;2.38;;;;;;;5.42;81.89;101047.66;4951936;28;20042;-77
2023/04/25 02:19:11;;;;;;;8.75;2.30;;;;;;;5.39;82.51;101049.38;4951601;28;20379;-77
2023/04/25 02:21:37;;;;;;;7.15;2.17;;;;;;;5.36;81.96;101062.28;4951103;28;20038;-77
2023/04/25 02:24:03;;;;;;;6.40;1.98;;;;;;;5.35;82.30;101057.97;4954505;28;20395;-77
2023/04/25 02:26:28;;;;;;;7.75;2.10;;;;;;;5.34;82.31;101056.25;4950429;28;20038;-77
2023/04/25 02:28:54;;;;;;;9.40;2.33;;;;;;;5.31;81.86;101055.38;4950523;28;20027;-77
2023/04/25 02:31:20;;;;;;;7.28;2.28;;;;;;;5.29;82.15;101058.84;4950000;28;20070;-77
2023/04/25 02:33:46;;;;;;;9.05;2.80;;;;;;;5.26;82.11;101054.56;4949294;28;20062;-77
2023/04/25 02:36:11;;;;;;;5.80;2.22;;;;;;;5.24;81.79;101058.84;4949582;28;20030;-77
2023/04/25 02:38:37;;;;;;;10.10;2.40;;;;;;;5.20;81.83;101057.13;4951678;28;20118;-77
2023/04/25 02:41:02;;;;;;;6.20;2.15;;;;;;;5.15;82.13;101056.25;4953374;28;20034;-77
2023/04/25 02:43:27;;;;;;;7.05;2.03;;;;;;;5.11;81.87;101057.97;4952467;28;20390;-77
2023/04/25 02:45:53;;;;;;;6.25;2.40;;;;;;;5.08;81.52;101063.13;4950157;28;20042;-77
2023/04/25 02:48:19;;;;;;;7.20;2.45;;;;;;;5.05;81.45;101057.97;4952543;28;20029;-77
2023/04/25 02:50:45;;;;;;;8.50;2.22;;;;;;;5.00;81.89;101060.53;4953445;28;20031;-77
2023/04/25 02:53:10;;;;;;;8.73;2.20;;;;;;;4.95;81.68;101059.66;4953042;28;20078;-77
2023/04/25 02:55:35;;;;;;;7.43;2.35;;;;;;;4.91;82.13;101060.56;4952038;28;20118;-77
2023/04/25 02:58:00;;;;;;;7.93;2.53;;;;;;;4.86;82.35;101062.25;4949993;28;20027;-77
2023/04/25 03:00:26;;;;;;;6.70;2.33;;;;;;;4.84;81.76;101063.97;4949981;28;20040;-77
2023/04/25 03:02:51;;;;;;;7.05;2.35;;;;;;;4.79;82.02;101057.94;4949820;28;20058;-77
2023/04/25 03:05:17;;;;;;;8.50;2.35;;;;;;;4.74;82.19;101057.09;4947996;28;20149;-77
2023/04/25 03:07:43;;;;;;;8.68;2.33;;;;;;;4.71;82.46;101063.06;4948762;28;20426;-77
2023/04/25 03:10:09;;;;;;;10.80;2.92;;;;;;;4.67;82.79;101059.63;4943386;28;20038;-77
2023/04/25 03:12:34;;;;;;;7.85;2.33;;;;;;;4.64;82.27;101051.91;4948751;28;21528;-77
2023/04/25 03:15:00;;;;;;;6.70;2.15;;;;;;;4.62;82.13;101069.06;4953367;28;20077;-77
2023/04/25 03:17:25;;;;;;;8.90;2.35;;;;;;;4.61;82.00;101062.19;4952099;28;20403;-77
2023/04/25 03:19:50;;;;;;;7.00;1.95;;;;;;;4.58;82.37;101054.47;4948687;28;20480;-77
2023/04/25 03:22:16;;;;;;;5.60;2.00;;;;;;;4.59;82.15;101070.78;4949471;28;20027;-77
2023/04/25 03:24:41;;;;;;;8.65;2.55;;;;;;;4.57;82.19;101070.78;4951103;28;20023;-77
2023/04/25 03:27:06;;;;;;;7.43;2.28;;;;;;;4.61;82.23;101069.06;4952119;28;20448;-77
2023/04/25 03:29:31;;;;;;;5.78;2.10;;;;;;;4.61;82.41;101074.22;4949290;28;20043;-77
2023/04/25 03:31:57;;;;;;;7.75;2.58;;;;;;;4.61;82.45;101062.19;4947669;28;20436;-77
2023/04/25 03:34:22;;;;;;;4.68;2.22;;;;;;;4.64;82.32;101066.50;4953311;28;20039;-77
2023/04/25 03:36:47;;;;;;;5.68;2.25;;;;;;;4.65;82.45;101063.94;4952166;28;20031;-77
2023/04/25 03:39:12;;;;;;;8.68;2.15;;;;;;;4.65;82.54;101074.22;4953426;28;20028;-77
2023/04/25 03:41:38;;;;;;;8.35;2.47;;;;;;;4.67;82.34;101071.69;4951915;28;20442;-77
2023/04/25 03:44:03;;;;;;;7.28;2.33;;;;;;;4.68;82.37;101069.09;4954795;28;20035;-77
2023/04/25 03:46:28;;;;;;;7.88;2.30;;;;;;;4.68;82.53;101071.66;4957345;28;20031;-77
2023/04/25 03:48:54;;;;;;;6.78;2.20;;;;;;;4.68;82.25;101071.66;4952053;28;20118;-77
2023/04/25 03:51:19;;;;;;;6.88;2.60;;;;;;;4.70;82.46;101074.25;4951755;28;20086;-77
2023/04/25 03:53:44;;;;;;;5.38;2.10;;;;;;;4.71;82.90;101074.25;4954760;28;20546;-77
2023/04/25 03:56:10;;;;;;;4.75;2.03;;;;;;;4.70;82.85;101074.25;4954848;28;20037;-77
2023/04/25 03:58:35;;;;;;;8.38;2.45;;;;;;;4.71;82.74;101068.22;4951208;28;20038;-77
2023/04/25 04:01:02;;;;;;;7.50;2.40;;;;;;;4.76;82.85;101070.84;4952838;28;20027;-77
2023/04/25 04:03:28;;;;;;;8.10;2.55;;;;;;;4.78;81.95;101071.72;4955421;28;20054;-77
2023/04/25 04:05:53;;;;;;;6.75;2.35;;;;;;;4.81;82.68;101074.25;4955191;28;20474;-77
2023/04/25 04:08:18;;;;;;;9.30;2.53;;;;;;;4.82;82.61;101076.00;4953505;28;20630;-77
2023/04/25 04:10:44;;;;;;;12.05;3.28;;;;;;;4.83;82.91;101081.16;4952233;28;20038;-77
2023/04/25 04:13:09;;;;;;;6.15;2.50;;;;;;;4.85;82.61;101081.16;4952255;28;20399;-77
2023/04/25 04:15:34;;;;;;;9.75;2.63;;;;;;;4.81;82.21;101082.00;4953638;28;20040;-77
2023/04/25 04:18:02;;;;;;;6.45;2.33;;;;;;;4.79;82.74;101094.03;4955563;28;20489;-77
2023/04/25 04:20:29;;;;;;;8.00;2.55;;;;;;;4.77;82.84;101100.91;4960433;28;20035;-77
2023/04/25 04:22:55;;;;;;;8.50;2.80;;;;;;;4.74;82.78;101093.16;4952575;28;20031;-77
2023/04/25 04:25:20;;;;;;;7.32;2.45;;;;;;;4.71;82.59;101094.88;4955157;28;20039;-77
2023/04/25 04:27:45;;;;;;;7.78;2.58;;;;;;;4.70;82.88;101093.16;4952086;28;20540;-77
2023/04/25 04:30:12;;;;;;;6.68;2.33;;;;;;;4.69;83.09;101101.75;4949969;28;20031;-77
2023/04/25 04:32:38;;;;;;;8.77;2.58;;;;;;;4.68;83.57;101094.88;4955673;28;20031;-77
2023/04/25 04:35:04;;;;;;;6.63;2.30;;;;;;;4.70;83.64;101100.00;4952332;28;20033;-77
2023/04/25 04:37:30;;;;;;;6.10;2.47;;;;;;;4.71;83.69;101106.88;4954482;28;20036;-77
2023/04/25 04:39:55;;;;;;;10.63;2.45;;;;;;;4.70;83.41;101108.63;4951031;28;20164;-77
2023/04/25 04:42:21;;;;;;;6.95;2.70;;;;;;;4.69;83.29;101117.22;4949926;28;20035;-77
2023/04/25 04:44:46;;;;;;;7.40;2.50;;;;;;;4.69;83.08;101117.22;4952865;28;20031;-77
2023/04/25 04:47:12;;;;;;;7.10;2.60;;;;;;;4.67;82.99;101115.50;4954770;28;20030;-77
2023/04/25 04:49:37;;;;;;;8.82;2.60;;;;;;;4.66;82.90;101122.34;4953086;28;20155;-79
2023/04/25 04:52:03;;;;;;;8.85;2.53;;;;;;;4.67;82.94;101118.06;4949768;28;20047;-79
2023/04/25 04:54:28;;;;;;;8.02;2.50;;;;;;;4.69;82.87;101122.38;4946457;28;20483;-78
2023/04/25 04:56:53;;;;;;;6.82;2.38;;;;;;;4.70;83.04;101113.78;4951767;28;20502;-84
2023/04/25 04:59:19;;;;;;;9.05;2.72;;;;;;;4.73;82.53;101125.78;4948702;28;20031;-83
2023/04/25 05:01:44;;;;;;;7.00;2.60;;;;;;;4.77;82.66;101129.28;4942474;28;20515;-82
2023/04/25 05:04:09;;;;;;;10.65;2.80;;;;;;;4.80;82.64;101130.13;4952353;28;20062;-79
2023/04/25 05:06:35;;;;;;;8.77;2.33;;;;;;;4.87;81.72;101125.84;4951687;28;20484;-78
2023/04/25 05:09:00;;;;;;;10.63;2.50;;;;;;;4.90;80.71;101140.44;4956945;28;20043;-79
2023/04/25 05:11:25;;;;;;;7.38;2.47;;;;;;;4.92;80.45;101144.78;4950825;28;20042;-81
2023/04/25 05:13:52;;;;;;;10.65;2.70;;;;;;;4.96;80.25;101151.63;4950035;28;20032;-79
2023/04/25 05:16:17;;;;;;;11.07;2.55;;;;;;;4.99;80.47;101146.50;4953236;28;20380;-78
2023/04/25 05:18:42;;;;;;;9.10;2.22;;;;;;;5.05;80.01;101161.13;4951299;28;20094;-78
2023/04/25 05:21:08;;;;;;;5.15;2.30;;;;;;;5.06;80.41;101157.69;4952593;28;20499;-78
2023/04/25 05:23:33;;;;;;;11.27;2.53;;;;;;;5.10;80.20;101163.72;4949243;28;20027;-78
2023/04/25 05:25:59;;;;;;;9.57;2.45;;;;;;;5.10;80.53;101172.31;4945596;28;20420;-78
2023/04/25 05:28:25;;;;;;;12.15;2.50;;;;;;;5.10;80.59;101174.03;4951723;28;20382;-79
2023/04/25 05:30:50;;;;;;;9.55;3.00;;;;;;;5.10;80.19;101171.47;4950706;28;20043;-78
2023/04/25 05:33:16;;;;;;;6.43;2.38;;;;;;;5.11;80.43;101173.19;4954501;28;20023;-78
2023/04/25 05:35:41;;;;;;;7.53;2.47;;;;;;;5.14;80.94;101173.16;4957377;28;20027;-78
2023/04/25 05:38:07;;;;;;;9.50;2.33;;;;;;;5.15;80.24;101175.78;4951867;28;20050;-78
2023/04/25 05:40:32;;;;;;;8.18;2.08;;;;;;;5.19;79.67;101183.53;4950515;28;20041;-78
2023/04/25 05:42:57;;;;;;;5.53;2.40;;;;;;;5.20;79.96;101185.25;4952968;28;20074;-78
2023/04/25 05:45:23;;;;;;;6.63;2.10;;;;;;;5.19;79.87;101183.53;4951636;28;20518;-78
2023/04/25 05:47:48;;;;;;;8.55;2.55;;;;;;;5.19;79.15;101193.84;4941742;28;20039;-78
2023/04/25 05:50:13;;;;;;;12.07;2.70;;;;;;;5.18;78.99;101190.38;4949383;28;20098;-78
2023/04/25 05:52:38;;;;;;;6.40;2.30;;;;;;;5.19;80.46;101194.69;4943387;28;20398;-78
2023/04/25 05:55:04;;;;;;;7.00;2.17;;;;;;;5.22;78.04;101197.28;4943919;28;20023;-78
2023/04/25 05:57:29;;;;;;;9.10;2.63;;;;;;;5.20;79.14;101191.25;4945706;28;20722;-78
2023/04/25 05:59:55;;;;;;;6.70;2.20;;;;;;;5.20;78.40;101201.56;4951198;28;20059;-78
2023/04/25 06:02:21;;;;;;;7.50;2.30;;;;;;;5.21;78.10;101203.28;4948493;28;20028;-78
2023/04/25 06:04:47;;;;;;;6.22;2.05;;;;;;;5.21;77.28;101210.19;4943443;28;20054;-78
2023/04/25 06:07:12;;;;;;;7.55;1.90;;;;;;;5.22;77.83;101205.00;4949430;28;20457;-78
2023/04/25 06:09:39;;;;;;;7.45;2.15;;;;;;;5.21;77.13;101203.28;4953493;28;20077;-78
2023/04/25 06:12:05;;;;;;;4.25;2.05;;;;;;;5.21;77.16;101208.44;4950513;28;20027;-78
2023/04/25 06:14:30;;;;;;;4.95;1.77;;;;;;;5.24;77.28;101208.47;4951657;28;20024;-78
2023/04/25 06:16:56;;;;;;;5.15;2.00;;;;;;;5.27;75.83;101208.47;4948959;28;20541;-78
2023/04/25 06:19:21;;;;;;;7.13;2.00;;;;;;;5.32;76.68;101211.91;4944801;28;20046;-78
2023/04/25 06:21:46;;;;;;;5.65;1.92;;;;;;;5.36;75.69;101220.53;4962826;28;20031;-78
2023/04/25 06:24:12;;;;;;;6.15;1.80;;;;;;;5.39;75.55;101217.94;4946954;28;20039;-79
2023/04/25 06:26:37;;;;;;;5.00;1.98;;;;;;;5.39;75.60;101217.94;4942923;28;20035;-78
2023/04/25 06:29:02;;;;;;;6.32;1.90;;;;;;;5.41;76.35;101215.38;4954028;28;20027;-78
2023/04/25 06:31:28;;;;;;;7.50;1.85;;;;;;;5.42;76.11;101215.38;4952639;28;20507;-78
2023/04/25 06:33:54;;;;;;;5.78;1.75;;;;;;;5.43;74.46;101211.06;4946877;28;20030;-78
2023/04/25 06:36:24;;;;;;;4.82;1.80;;;;;;;5.46;75.58;101218.81;4950494;28;20063;-78
2023/04/25 06:38:50;;;;;;;7.00;1.70;;;;;;;5.49;75.42;101223.97;4953831;28;20460;-78
2023/04/25 06:41:15;;;;;;;8.02;2.10;;;;;;;5.52;75.12;101218.81;4953437;28;20045;-78
2023/04/25 06:43:41;;;;;;;4.22;1.80;;;;;;;5.54;76.53;101211.94;4953803;28;20030;-78
2023/04/25 06:46:06;;;;;;;5.18;1.45;;;;;;;5.58;76.21;101228.28;4951421;28;20019;-78
2023/04/25 06:48:31;;;;;;;6.05;1.70;;;;;;;5.61;75.84;101239.50;4953302;28;20035;-78
2023/04/25 06:50:56;;;;;;;5.07;1.92;;;;;;;5.59;75.63;101238.63;4946655;28;20054;-77
2023/04/25 06:53:22;;;;;;;7.50;2.00;;;;;;;5.61;75.15;101238.63;4951471;28;20063;-78
2023/04/25 06:55:47;;;;;;;6.15;1.70;;;;;;;5.66;76.58;101246.34;4953276;28;20428;-78
2023/04/25 06:58:12;;;;;;;3.95;1.50;;;;;;;5.69;75.31;101247.25;4953037;28;20027;-78
2023/04/25 07:00:37;;;;;;;8.05;1.80;;;;;;;5.72;74.32;101242.06;4949090;28;20019;-78
2023/04/25 07:03:03;;;;;;;6.07;1.75;;;;;;;5.77;74.67;101247.25;4953309;28;20069;-78
2023/04/25 07:05:28;;;;;;;4.93;1.60;;;;;;;5.78;75.75;101247.25;4952009;28;20015;-78
2023/04/25 07:07:54;;;;;;;5.32;1.45;;;;;;;5.83;74.84;101244.66;4947741;28;20031;-78
2023/04/25 07:10:21;;;;;;;5.82;1.70;;;;;;;5.87;71.85;101246.38;4946645;28;20525;-78
2023/04/25 07:12:46;;;;;;;3.47;1.27;;;;;;;5.91;73.04;101252.41;4947912;28;20030;-78
2023/04/25 07:15:11;;;;;;;6.38;1.73;;;;;;;5.97;74.87;101252.41;4951351;28;20106;-78
2023/04/25 07:17:37;;;;;;;4.40;1.40;;;;;;;6.00;74.66;101259.31;4950538;28;20023;-78
2023/04/25 07:20:03;;;;;;;5.50;1.40;;;;;;;6.06;73.68;101256.75;4953545;28;20074;-78
2023/04/25 07:22:28;;;;;;;9.10;1.90;;;;;;;6.11;72.25;101257.63;4952437;28;20158;-77
2023/04/25 07:24:55;;;;;;;7.65;1.77;;;;;;;6.15;73.42;101263.63;4953158;28;20475;-78
2023/04/25 07:27:21;;;;;;;6.78;1.70;;;;;;;6.19;74.56;101258.44;4950510;28;20035;-78
2023/04/25 07:29:46;;;;;;;5.45;1.73;;;;;;;6.22;73.02;101268.78;4952777;28;20085;-78
2023/04/25 07:32:13;;;;;;;5.95;1.90;;;;;;;6.28;74.66;101272.25;4952660;28;20047;-78
2023/04/25 07:34:38;;;;;;;8.73;2.03;;;;;;;6.35;73.19;101274.81;4950735;28;20123;-78
2023/04/25 07:37:05;;;;;;;7.35;1.88;;;;;;;6.41;74.11;101273.94;4949115;28;20179;-78
2023/04/25 07:39:30;;;;;;;5.25;1.73;;;;;;;6.49;74.58;101279.09;4951459;28;20388;-77
2023/04/25 07:41:56;;;;;;;5.47;1.98;;;;;;;6.57;73.95;101281.66;4953436;28;20493;-78
2023/04/25 07:44:21;;;;;;;5.43;1.70;;;;;;;6.61;72.04;101293.72;4951120;28;20027;-78
2023/04/25 07:46:46;;;;;;;5.70;1.63;;;;;;;6.67;74.45;101283.34;4953378;28;20034;-78
2023/04/25 07:49:12;;;;;;;7.70;1.75;;;;;;;6.77;71.63;101286.78;4948440;28;20043;-78
2023/04/25 07:51:37;;;;;;;8.60;1.90;;;;;;;6.88;71.24;101297.09;4953353;28;20483;-78
2023/04/25 07:54:02;;;;;;;6.70;1.50;;;;;;;7.03;72.16;101304.81;4951739;28;20027;-78
2023/04/25 07:56:28;;;;;;;4.80;1.27;;;;;;;7.21;70.57;101305.59;4953256;28;20028;-78
2023/04/25 07:58:53;;;;;;;4.03;1.27;;;;;;;7.31;69.08;101302.13;4951803;28;20037;-78
2023/04/25 08:01:20;;;;;;;5.07;1.65;;;;;;;7.34;68.12;101315.06;4948942;28;20074;-78
2023/04/25 08:03:45;;;;;;;7.22;1.52;;;;;;;7.37;68.46;101319.34;4949694;28;20031;-78
2023/04/25 08:06:11;;;;;;;7.90;1.38;;;;;;;7.38;68.41;101314.16;4953153;28;20074;-78
2023/04/25 08:08:36;;;;;;;6.75;1.27;;;;;;;7.39;68.27;101310.69;4950912;28;20054;-78
2023/04/25 08:11:01;;;;;;;5.40;1.20;;;;;;;7.42;65.74;101317.59;4953137;28;20527;-78
2023/04/25 08:13:27;;;;;;;4.10;1.10;;;;;;;7.47;67.14;101320.16;4953198;28;20035;-78
2023/04/25 08:15:52;;;;;;;6.50;1.50;;;;;;;7.56;67.25;101323.56;4953060;28;20122;-78
2023/04/25 08:18:17;;;;;;;3.20;1.20;;;;;;;7.68;65.52;101325.25;4949213;28;20042;-78
2023/04/25 08:20:43;;;;;;;4.43;1.52;;;;;;;7.79;66.48;101329.47;4955581;28;20089;-78
2023/04/25 08:23:08;;;;;;;3.40;1.20;;;;;;;7.90;66.32;101331.13;4955436;28;20031;-78
2023/04/25 08:25:33;;;;;;;9.40;1.38;;;;;;;8.00;66.19;101337.13;4956572;28;20031;-78
2023/04/25 08:27:59;;;;;;;6.38;1.20;;;;;;;8.07;65.15;101332.75;4954643;28;20031;-78
2023/04/25 08:30:24;;;;;;;4.60;1.20;;;;;;;8.11;64.84;101349.13;4956311;28;20077;-78
2023/04/25 08:32:50;;;;;;;5.57;1.40;;;;;;;8.14;64.58;101341.34;4953581;28;20035;-79
2023/04/25 08:35:17;;;;;;;6.43;1.60;;;;;;;8.18;66.47;101341.28;4956178;28;20110;-79
2023/04/25 08:37:42;;;;;;;5.05;1.20;;;;;;;8.22;64.56;101346.44;4956226;28;20097;-78
2023/04/25 08:40:11;;;;;;;6.68;1.33;;;;;;;8.17;63.78;101347.34;4953640;28;20106;-78
2023/04/25 08:42:37;;;;;;;7.05;1.30;;;;;;;8.13;63.15;101348.22;4952721;28;20046;-78
2023/04/25 08:45:03;;;;;;;3.30;0.80;;;;;;;8.10;61.53;101355.16;4956133;28;20023;-78
2023/04/25 08:47:29;;;;;;;6.60;1.10;;;;;;;8.12;62.58;101350.84;4954524;28;20526;-78
2023/04/25 08:49:55;;;;;;;5.03;1.17;;;;;;;8.23;62.34;101351.59;4956101;28;20027;-79
2023/04/25 08:52:23;;;;;;;4.50;0.90;;;;;;;8.34;62.10;101355.00;4951963;28;20516;-79
2023/04/25 08:54:49;;;;;;;3.70;0.80;;;;;;;8.39;60.19;101364.44;4953767;28;20093;-78
2023/04/25 08:57:15;;;;;;;7.03;1.08;;;;;;;8.43;61.30;101358.38;4946400;28;20239;-79
2023/04/25 08:59:45;;;;;;;4.60;1.20;;;;;;;8.49;60.42;101366.16;4951534;28;20026;-79
2023/04/25 09:02:14;;;;;;;4.35;1.10;;;;;;;8.59;62.19;101378.13;4943747;28;20039;-78
2023/04/25 09:04:40;;;;;;;4.70;1.23;;;;;;;8.67;61.70;101377.22;4950460;28;20115;-78
2023/04/25 09:07:05;;;;;;;4.40;1.20;;;;;;;8.79;66.33;101375.38;4948415;28;20046;-79
2023/04/25 09:09:31;;;;;;;4.90;1.10;;;;;;;8.80;61.72;101391.78;4943331;28;20031;-78
2023/04/25 09:11:57;;;;;;;5.55;1.15;;;;;;;8.71;61.60;101397.94;4943992;28;20089;-79
2023/04/25 09:14:24;;;;;;;3.83;1.02;;;;;;;8.59;61.74;101406.66;4938989;28;20035;-78
2023/04/25 09:16:56;;;;;;;6.03;1.23;;;;;;;8.50;62.78;101409.34;4937538;28;20027;-78
2023/04/25 09:19:22;;;;;;;6.20;1.20;;;;;;;8.48;62.90;101411.94;4946501;28;20074;-79
2023/04/25 09:21:53;;;;;;;6.95;1.45;;;;;;;8.48;61.88;101414.53;4942679;28;20030;-78
2023/04/25 09:24:36;;;;;;;4.90;1.20;;;;;;;8.53;63.65;101409.34;4945090;28;20031;-79
2023/04/25 09:27:10;;;;;;;7.05;1.63;;;;;;;8.61;64.37;101423.09;4947801;28;20109;-78
2023/04/25 09:29:37;;;;;;;7.25;1.40;;;;;;;8.68;63.08;101423.03;4949134;28;20080;-79
2023/04/25 09:32:22;;;;;;;2.40;1.20;;;;;;;8.65;62.17;101429.97;4951292;28;20090;-78
2023/04/25 09:34:52;;;;;;;3.75;1.10;;;;;;;8.57;62.05;101447.31;4952569;28;20027;-78
2023/04/25 09:37:27;;;;;;;2.88;1.10;;;;;;;8.21;62.61;101459.63;4953898;28;20019;-77
2023/04/25 09:40:02;;;;;;;3.17;0.90;;;;;;;7.84;64.94;101465.88;4955128;28;20494;-77
2023/04/25 09:42:31;;;;;;;3.55;0.90;;;;;;;7.55;65.77;101484.09;4951542;28;20027;-77
2023/04/25 09:44:57;;;;;;;3.30;0.80;;;;;;;7.26;63.67;101470.34;4949811;28;20031;-77
2023/04/25 09:47:25;;;;;;;4.75;0.93;;;;;;;7.05;63.97;101472.97;4952045;28;20118;-77
2023/04/25 09:49:52;;;;;;;2.35;0.88;;;;;;;6.95;65.22;101474.72;4952791;28;20028;-77
2023/04/25 09:52:23;;;;;;;4.43;0.93;;;;;;;6.90;65.30;101469.53;4949515;28;20439;-78
2023/04/25 09:54:50;;;;;;;3.00;0.70;;;;;;;6.85;67.08;101471.25;4955270;28;20035;-78
2023/04/25 09:57:20;;;;;;;3.80;1.10;;;;;;;6.83;66.57;101475.56;4948918;28;20067;-78
2023/04/25 09:59:48;;;;;;;2.42;0.80;;;;;;;6.81;66.82;101478.16;4945558;28;20039;-77
2023/04/25 10:02:20;;;;;;;2.55;0.73;;;;;;;6.77;65.46;101467.78;4947390;28;20038;-78
2023/04/25 10:04:48;;;;;;;;;;;;;;;6.79;66.78;101477.31;4937754;28;20111;-78
2023/04/25 10:07:14;;;;;;;3.67;0.82;;;;;;;6.75;64.61;101475.56;4946682;28;20437;-78
2023/04/25 10:09:40;;;;;;;4.60;0.90;;;;;;;6.81;65.48;101475.59;4947199;28;20031;-78
2023/04/25 10:12:07;;;;;;;3.85;0.82;;;;;;;6.91;66.92;101470.41;4951318;28;20023;-78
2023/04/25 10:14:33;;;;;;;2.17;0.80;;;;;;;7.01;64.22;101466.94;4949198;28;20032;-77
2023/04/25 10:16:59;;;;;;;2.95;0.93;;;;;;;7.13;67.04;101456.59;4948381;28;20019;-78
2023/04/25 10:19:26;;;;;;;3.00;0.77;;;;;;;7.26;65.29;101453.97;4953469;28;20118;-78
2023/04/25 10:22:06;;;;;;;2.92;0.73;;;;;;;7.35;63.12;101446.16;4947450;28;20039;-78
2023/04/25 10:24:32;;;;;;;3.50;0.80;;;;;;;7.46;60.98;101453.91;4952412;28;20027;-77
2023/04/25 10:26:58;;;;;;;3.05;1.20;;;;;;;7.57;61.63;101451.28;4949914;28;20031;-77
2023/04/25 10:29:27;;;;;;;5.25;1.10;;;;;;;7.68;60.17;101448.66;4947550;28;20090;-77
2023/04/25 10:31:53;;;;;;;3.28;1.00;;;;;;;7.74;61.76;101438.28;4952349;28;20051;-78
2023/04/25 10:34:19;;;;;;;4.93;1.20;;;;;;;7.88;65.42;101435.63;4949250;28;20475;-78
2023/04/25 10:36:52;;;;;;;3.55;1.00;;;;;;;8.03;62.16;101440.72;4948911;28;20454;-78
2023/04/25 10:39:26;;;;;;;2.83;0.90;;;;;;;8.17;60.62;101448.41;4950473;28;20085;-78
2023/04/25 10:41:58;;;;;;;4.55;1.00;;;;;;;8.29;58.02;101452.69;4950215;28;20031;-77
2023/04/25 10:44:28;;;;;;;3.22;1.20;;;;;;;8.34;58.07;101440.56;4948947;28;20061;-78
2023/04/25 10:47:01;;;;;;;2.85;0.90;;;;;;;8.52;58.33;101448.22;4951242;28;20035;-77
2023/04/25 10:49:40;;;;;;;2.92;0.90;;;;;;;8.69;58.61;101446.38;4948764;28;20037;-78
2023/04/25 10:52:13;;;;;;;3.17;0.85;;;;;;;8.97;61.56;101448.72;4944792;28;20031;-78
2023/04/25 10:54:51;;;;;;;3.95;1.08;;;;;;;9.14;55.17;101448.56;4947354;28;20027;-77
2023/04/25 10:57:43;;;;;;;4.38;1.10;;;;;;;9.10;56.66;101446.88;4941226;28;20038;-78
2023/04/25 11:00:18;;;;;;;3.25;1.00;;;;;;;8.93;53.38;101449.63;4944226;28;20024;-78
2023/04/25 11:02:44;;;;;;;3.03;0.70;;;;;;;8.83;56.64;101456.63;4947657;28;20031;-78
2023/04/25 11:05:10;;;;;;;4.05;0.90;;;;;;;8.75;57.40;101458.41;4938259;28;20087;-79
2023/04/25 11:07:48;;;;;;;3.83;0.90;;;;;;;8.59;58.69;101463.72;4945328;28;20034;-78
2023/04/25 11:10:14;;;;;;;4.40;1.00;;;;;;;8.42;60.70;101471.63;4953875;28;20031;-79
2023/04/25 11:12:40;;;;;;;2.42;0.80;;;;;;;8.31;61.31;101468.22;4950185;28;20030;-78
2023/04/25 11:15:07;;;;;;;4.03;1.10;;;;;;;8.19;62.38;101487.31;4957871;28;20087;-79
2023/04/25 11:17:32;;;;;;;6.00;1.10;;;;;;;8.09;62.54;101485.63;4946778;28;20019;-78
2023/04/25 11:19:58;;;;;;;3.28;0.80;;;;;;;8.00;61.39;101494.28;4948306;28;20077;-79
2023/04/25 11:22:24;;;;;;;3.25;0.82;;;;;;;7.97;63.22;101490.00;4947596;28;20194;-79
2023/04/25 11:24:50;;;;;;;3.28;0.90;;;;;;;8.02;63.46;101503.81;4950989;28;20070;-79
2023/04/25 11:27:15;;;;;;;4.22;0.90;;;;;;;8.10;62.40;101497.69;4963164;28;20054;-79
2023/04/25 11:29:41;;;;;;;3.55;0.85;;;;;;;8.24;62.17;101493.31;4965864;28;20102;-79